地図

経路データ

SID SEASON NUMBER BASIN SUBBASIN NAME ISO_TIME NATURE LAT LON WMO_WIND WMO_PRES WMO_AGENCY TRACK_TYPE DIST2LAND LANDFALL IFLAG USA_AGENCY USA_ATCF_ID USA_LAT USA_LON USA_RECORD USA_STATUS USA_WIND USA_PRES USA_SSHS USA_R34_NE USA_R34_SE USA_R34_SW USA_R34_NW USA_R50_NE USA_R50_SE USA_R50_SW USA_R50_NW USA_R64_NE USA_R64_SE USA_R64_SW USA_R64_NW USA_POCI USA_ROCI USA_RMW USA_EYE TOKYO_LAT TOKYO_LON TOKYO_GRADE TOKYO_WIND TOKYO_PRES TOKYO_R50_DIR TOKYO_R50_LONG TOKYO_R50_SHORT TOKYO_R30_DIR TOKYO_R30_LONG TOKYO_R30_SHORT TOKYO_LAND CMA_LAT CMA_LON CMA_CAT CMA_WIND CMA_PRES HKO_LAT HKO_LON HKO_CAT HKO_WIND HKO_PRES NEWDELHI_LAT NEWDELHI_LON NEWDELHI_GRADE NEWDELHI_WIND NEWDELHI_PRES NEWDELHI_CI NEWDELHI_DP NEWDELHI_POCI REUNION_LAT REUNION_LON REUNION_TYPE REUNION_WIND REUNION_PRES REUNION_TNUM REUNION_CI REUNION_RMW REUNION_R34_NE REUNION_R34_SE REUNION_R34_SW REUNION_R34_NW REUNION_R50_NE REUNION_R50_SE REUNION_R50_SW REUNION_R50_NW REUNION_R64_NE REUNION_R64_SE REUNION_R64_SW REUNION_R64_NW BOM_LAT BOM_LON BOM_TYPE BOM_WIND BOM_PRES BOM_TNUM BOM_CI BOM_RMW BOM_R34_NE BOM_R34_SE BOM_R34_SW BOM_R34_NW BOM_R50_NE BOM_R50_SE BOM_R50_SW BOM_R50_NW BOM_R64_NE BOM_R64_SE BOM_R64_SW BOM_R64_NW BOM_ROCI BOM_POCI BOM_EYE BOM_POS_METHOD BOM_PRES_METHOD NADI_LAT NADI_LON NADI_CAT NADI_WIND NADI_PRES WELLINGTON_LAT WELLINGTON_LON WELLINGTON_WIND WELLINGTON_PRES DS824_LAT DS824_LON DS824_STAGE DS824_WIND DS824_PRES TD9636_LAT TD9636_LON TD9636_STAGE TD9636_WIND TD9636_PRES TD9635_LAT TD9635_LON TD9635_WIND TD9635_PRES TD9635_ROCI NEUMANN_LAT NEUMANN_LON NEUMANN_CLASS NEUMANN_WIND NEUMANN_PRES MLC_LAT MLC_LON MLC_CLASS MLC_WIND MLC_PRES USA_GUST BOM_GUST BOM_GUST_PER REUNION_GUST REUNION_GUST_PER USA_SEAHGT USA_SEARAD_NE USA_SEARAD_SE USA_SEARAD_SW USA_SEARAD_NW STORM_SPEED STORM_DIR
1958063S12068 1958 20 SI MM NOT_NAMED 1958-03-04 06:00:00 TS -11.8000 67.6000 main 1407 1384 O________OO___ jtwc_sh SH211958 -11.8000 67.6000 -1 -11.8000 67.6000 TC 25 -11.8000 67.6000 7 5 206
1958063S12068 1958 20 SI MM NOT_NAMED 1958-03-04 09:00:00 TS -12.0035 67.4965 main 1384 1361 P________PP___ SH211958 -12.0075 67.5025 -1 -12.0075 67.5025 TC 25 -11.9954 67.4846 7 4 207
1958063S12068 1958 20 SI MM NOT_NAMED 1958-03-04 12:00:00 TS -12.1942 67.3918 main 1361 1338 O________OP___ jtwc_sh SH211958 -12.2000 67.4000 -1 -12.2000 67.4000 TC 25 -12.1826 67.3752 7 4 210
1958063S12068 1958 20 SI MM NOT_NAMED 1958-03-04 15:00:00 TS -12.3612 67.2878 main 1338 1322 P________PP___ SH211958 -12.3650 67.2925 -1 -12.3650 67.2925 TC 25 -12.3535 67.2783 7 4 211
1958063S12068 1958 20 SI MM NOT_NAMED 1958-03-04 18:00:00 TS -12.5000 67.2000 main 1322 1307 O________OO___ jtwc_sh SH211958 -12.5000 67.2000 -1 -12.5000 67.2000 TC 25 -12.5000 67.2000 1 3 210
1958063S12068 1958 20 SI MM NOT_NAMED 1958-03-04 21:00:00 TS -12.6063 67.1428 main 1307 1299 P________PP___ SH211958 -12.6000 67.1425 -1 -12.6000 67.1425 TC 25 -12.6190 67.1436 1 2 205
1958063S12068 1958 20 SI MM NOT_NAMED 1958-03-05 00:00:00 TS -12.7092 67.0999 main 1299 1292 O________OP___ jtwc_sh SH211958 -12.7000 67.1000 -1 -12.7000 67.1000 TC 25 -12.7275 67.0998 1 2 199
1958063S12068 1958 20 SI MM NOT_NAMED 1958-03-05 03:00:00 TS -12.8340 67.0570 main 1292 1269 P________PP___ SH211958 -12.8275 67.0575 -1 -12.8275 67.0575 TC 25 -12.8472 67.0561 1 3 198
1958063S12068 1958 20 SI MM NOT_NAMED 1958-03-05 06:00:00 TS -13.0000 67.0000 main 1269 1247 O________OO___ jtwc_sh SH211958 -13.0000 67.0000 -1 -13.0000 67.0000 TC 25 -13.0000 67.0000 1 4 200
1958063S12068 1958 20 SI MM NOT_NAMED 1958-03-05 09:00:00 TS -13.2280 66.9085 main 1247 1217 P________PP___ SH211958 -13.2350 66.9075 -1 -13.2350 66.9075 TC 25 -13.2141 66.9104 1 5 202
1958063S12068 1958 20 SI MM NOT_NAMED 1958-03-05 12:00:00 TS -13.4875 66.8025 main 1217 1195 O________OP___ jtwc_sh SH211958 -13.5000 66.8000 -1 -13.5000 66.8000 TC 25 -13.4625 66.8076 1 6 202
1958063S12068 1958 20 SI MM NOT_NAMED 1958-03-05 15:00:00 TS -13.7432 66.6953 main 1195 1166 P________PP___ SH211958 -13.7500 66.6925 -1 -13.7500 66.6925 TC 25 -13.7297 66.7010 1 6 201
1958063S12068 1958 20 SI MM NOT_NAMED 1958-03-05 18:00:00 TS -14.0000 66.6000 main 1166 1144 O________OO___ jtwc_sh SH211958 -14.0000 66.6000 -1 -14.0000 66.6000 TC 25 -14.0000 66.6000 1 5 197
1958063S12068 1958 20 SI MM NOT_NAMED 1958-03-05 21:00:00 TS -14.2459 66.5392 main 1144 1124 P________PP___ SH211958 -14.2500 66.5499 -1 -14.2500 66.5499 TC 25 -14.2378 66.5177 1 5 194
1958063S12068 1958 20 SI MM NOT_NAMED 1958-03-06 00:00:00 TS -14.4925 66.4808 main 1124 1103 O________OP___ jtwc_sh SH211958 -14.5000 66.5000 -1 -14.5000 66.5000 TC 25 -14.4775 66.4423 1 5 196
1958063S12068 1958 20 SI MM NOT_NAMED 1958-03-06 03:00:00 TS -14.7378 66.3903 main 1103 1075 P________PP___ SH211958 -14.7425 66.4000 -1 -14.7425 66.4000 TC 30 -14.7284 66.3708 1 5 199
1958063S12068 1958 20 SI MM NOT_NAMED 1958-03-06 06:00:00 TS -15.0000 66.3000 main 1075 1048 O________OO___ jtwc_sh SH211958 -15.0000 66.3000 -1 -15.0000 66.3000 TC 35 -15.0000 66.3000 2 6 195
1958063S12068 1958 20 SI MM NOT_NAMED 1958-03-06 09:00:00 TS -15.2871 66.2363 main 1048 1030 P________PP___ SH211958 -15.2850 66.2499 -1 -15.2850 66.2499 TC 35 -15.2913 66.2089 2 6 192
1958063S12068 1958 20 SI MM NOT_NAMED 1958-03-06 12:00:00 TS -15.6017 66.1734 main 1030 1004 O________OP___ jtwc_sh SH211958 -15.6000 66.2000 -1 -15.6000 66.2000 TC 35 -15.6050 66.1203 2 7 193
1958063S12068 1958 20 SI MM NOT_NAMED 1958-03-06 15:00:00 TS -15.9371 66.0822 main 1004 974 P________PP___ SH211958 -15.9350 66.1000 -1 -15.9350 66.1000 TC 35 -15.9413 66.0465 2 7 194
1958063S12068 1958 20 SI MM NOT_NAMED 1958-03-06 18:00:00 TS -16.3000 66.0000 main 974 944 O________OO___ jtwc_sh SH211958 -16.3000 66.0000 -1 -16.3000 66.0000 TC 35 -16.3000 66.0000 2 8 191
1958063S12068 1958 20 SI MM NOT_NAMED 1958-03-06 21:00:00 TS -16.6810 65.9388 main 944 925 P________PP___ SH211958 -16.6925 65.9201 -1 -16.6925 65.9201 TC 35 -16.6581 65.9761 2 8 185
1958063S12068 1958 20 SI MM NOT_NAMED 1958-03-07 00:00:00 TS -17.0800 65.9276 main 925 916 O________OP___ jtwc_sh SH211958 -17.1000 65.9000 -1 -17.1000 65.9000 TC 35 -17.0400 65.9829 2 8 177
1958063S12068 1958 20 SI MM NOT_NAMED 1958-03-07 03:00:00 TS -17.4739 65.9877 main 917 909 P________PP___ SH211958 -17.4850 65.9700 -1 -17.4850 65.9700 TC 50 -17.4518 66.0232 2 8 169
1958063S12068 1958 20 SI MM NOT_NAMED 1958-03-07 06:00:00 TS -17.9000 66.1000 main 912 905 O________OO___ jtwc_sh SH211958 -17.9000 66.1000 -1 -17.9000 66.1000 TC 65 -17.9000 66.1000 4 9 166
1958063S12068 1958 20 SI MM NOT_NAMED 1958-03-07 09:00:00 TS -18.3881 66.2316 main 906 906 P________PP___ SH211958 -18.3775 66.2425 -1 -18.3775 66.2425 TC 65 -18.4094 66.2096 4 11 165
1958063S12068 1958 20 SI MM NOT_NAMED 1958-03-07 12:00:00 TS -18.9167 66.3848 main 914 910 O________OP___ jtwc_sh SH211958 -18.9000 66.4000 -1 -18.9000 66.4000 TC 65 -18.9500 66.3545 4 11 165
1958063S12068 1958 20 SI MM NOT_NAMED 1958-03-07 15:00:00 TS -19.4785 66.5407 main 913 913 P________PP___ SH211958 -19.4725 66.5500 -1 -19.4725 66.5500 TC 65 -19.4907 66.5222 4 11 165
1958063S12068 1958 20 SI MM NOT_NAMED 1958-03-07 18:00:00 TS -20.0000 66.7000 main 929 928 O________OO___ jtwc_sh SH211958 -20.0000 66.7000 -1 -20.0000 66.7000 TC 65 -20.0000 66.7000 4 9 163
1958063S12068 1958 20 SI MM NOT_NAMED 1958-03-07 21:00:00 TS -20.3695 66.8330 main 938 938 P________PP___ SH211958 -20.3650 66.8428 -1 -20.3650 66.8428 TC 65 -20.3785 66.8135 4 8 160
1958063S12068 1958 20 SI MM NOT_NAMED 1958-03-08 00:00:00 TS -20.7105 66.9806 main 959 959 O________OP___ jtwc_sh SH211958 -20.7000 67.0000 -1 -20.7000 67.0000 TC 65 -20.7315 66.9418 4 8 158
1958063S12068 1958 20 SI MM NOT_NAMED 1958-03-08 03:00:00 TS -21.0995 67.1451 main 971 971 P________PP___ SH211958 -21.0898 67.1557 -1 -21.0898 67.1557 TC 65 -21.1188 67.1239 4 10 156
1958063S12068 1958 20 SI MM NOT_NAMED 1958-03-08 06:00:00 TS -21.6000 67.4000 main 1007 1007 O________OO___ jtwc_sh SH211958 -21.6000 67.4000 -1 -21.6000 67.4000 TC 65 -21.6000 67.4000 4 13 153
1958063S12068 1958 20 SI MM NOT_NAMED 1958-03-08 09:00:00 TS -22.2906 67.7957 main 1059 1059 P________PP___ SH211958 -22.3049 67.7901 -1 -22.3049 67.7901 TC 65 -22.2619 67.8069 4 17 150
1958063S12068 1958 20 SI MM NOT_NAMED 1958-03-08 12:00:00 TS -23.0727 68.3045 main 1128 1128 O________OP___ jtwc_sh SH211958 -23.1000 68.3000 -1 -23.1000 68.3000 TC 65 -23.0180 68.3136 4 19 147
1958063S12068 1958 20 SI MM NOT_NAMED 1958-03-08 15:00:00 TS -23.8433 68.8814 main 1208 1208 P________PP___ SH211958 -23.8575 68.8777 -1 -23.8575 68.8777 TC 65 -23.8149 68.8888 4 19 144
1958063S12068 1958 20 SI MM NOT_NAMED 1958-03-08 18:00:00 TS -24.6000 69.5000 main 1293 1293 O________OO___ jtwc_sh SH211958 -24.6000 69.5000 -1 -24.6000 69.5000 TC 65 -24.6000 69.5000 4 19 143
1958063S12068 1958 20 SI MM NOT_NAMED 1958-03-08 21:00:00 TS -25.3205 70.1019 main 1377 1377 P________PP___ SH211958 -25.3146 70.0933 -1 -25.3146 70.0933 TC 65 -25.3323 70.1191 4 18 142
1958063S12068 1958 20 SI MM NOT_NAMED 1958-03-09 00:00:00 TS -26.0054 70.7138 main 1461 1461 O________OP___ jtwc_sh SH211958 -26.0000 70.7000 -1 -26.0000 70.7000 TC 65 -26.0162 70.7414 4 18 140
1958063S12068 1958 20 SI MM NOT_NAMED 1958-03-09 03:00:00 TS -26.6612 71.3483 main 1547 1547 P________PP___ SH211958 -26.6582 71.3384 -1 -26.6582 71.3384 TC 65 -26.6671 71.3679 4 17 138
1958063S12068 1958 20 SI MM NOT_NAMED 1958-03-09 06:00:00 TS -27.3000 72.0000 main 1637 O________OO___ jtwc_sh SH211958 -27.3000 72.0000 -1 -27.3000 72.0000 TC 65 -27.3000 72.0000 4 17 138

IBTrACS Databaseについて

本データベースは、米国NOAAが公開する1842年以降の世界の熱帯低気圧のベストトラックデータアーカイブInternational Best Track Archive for Climate Stewardship (IBTrACS)を、ウェブで閲覧しやすい形式に変換したものです。

最終更新日:2021-12-06